sensor_id;sensor_type;location;lat;lon;timestamp;temperature;humidity
38118;DHT22;23928;47.562;7.508;2023-01-26T00:02:06;1.70;99.90
38118;DHT22;23928;47.562;7.508;2023-01-26T00:04:32;1.50;99.90
38118;DHT22;23928;47.562;7.508;2023-01-26T00:06:57;1.40;99.90
38118;DHT22;23928;47.562;7.508;2023-01-26T00:09:23;1.50;99.90
38118;DHT22;23928;47.562;7.508;2023-01-26T00:11:48;1.50;99.90
38118;DHT22;23928;47.562;7.508;2023-01-26T00:14:14;1.70;99.90
38118;DHT22;23928;47.562;7.508;2023-01-26T00:16:39;1.60;99.90
38118;DHT22;23928;47.562;7.508;2023-01-26T00:19:05;1.70;99.90
38118;DHT22;23928;47.562;7.508;2023-01-26T00:21:31;1.70;99.90
38118;DHT22;23928;47.562;7.508;2023-01-26T00:23:57;1.70;99.90
38118;DHT22;23928;47.562;7.508;2023-01-26T00:26:24;1.40;99.90
38118;DHT22;23928;47.562;7.508;2023-01-26T00:28:51;1.40;99.90
38118;DHT22;23928;47.562;7.508;2023-01-26T00:31:19;1.50;99.90
38118;DHT22;23928;47.562;7.508;2023-01-26T00:33:45;1.40;99.90
38118;DHT22;23928;47.562;7.508;2023-01-26T00:36:12;1.40;99.90
38118;DHT22;23928;47.562;7.508;2023-01-26T00:38:38;1.30;99.90
38118;DHT22;23928;47.562;7.508;2023-01-26T00:41:04;1.30;99.90
38118;DHT22;23928;47.562;7.508;2023-01-26T00:43:30;1.40;99.90
38118;DHT22;23928;47.562;7.508;2023-01-26T00:45:55;1.40;99.90
38118;DHT22;23928;47.562;7.508;2023-01-26T00:48:21;1.40;99.90
38118;DHT22;23928;47.562;7.508;2023-01-26T00:50:49;1.30;99.90
38118;DHT22;23928;47.562;7.508;2023-01-26T00:53:15;1.40;99.90
38118;DHT22;23928;47.562;7.508;2023-01-26T00:55:41;1.30;99.90
38118;DHT22;23928;47.562;7.508;2023-01-26T00:58:07;1.40;99.90
38118;DHT22;23928;47.562;7.508;2023-01-26T01:00:35;1.30;99.90
38118;DHT22;23928;47.562;7.508;2023-01-26T01:03:01;1.40;99.90
38118;DHT22;23928;47.562;7.508;2023-01-26T01:05:28;1.40;99.90
38118;DHT22;23928;47.562;7.508;2023-01-26T01:07:55;1.40;99.90
38118;DHT22;23928;47.562;7.508;2023-01-26T01:10:21;1.30;99.90
38118;DHT22;23928;47.562;7.508;2023-01-26T01:12:46;1.30;99.90
38118;DHT22;23928;47.562;7.508;2023-01-26T01:15:12;1.40;99.90
38118;DHT22;23928;47.562;7.508;2023-01-26T01:17:38;1.40;99.90
38118;DHT22;23928;47.562;7.508;2023-01-26T01:20:09;1.50;99.90
38118;DHT22;23928;47.562;7.508;2023-01-26T01:22:35;1.40;99.90
38118;DHT22;23928;47.562;7.508;2023-01-26T01:25:01;1.40;99.90
38118;DHT22;23928;47.562;7.508;2023-01-26T01:27:27;1.50;99.90
38118;DHT22;23928;47.562;7.508;2023-01-26T01:29:53;1.50;99.90
38118;DHT22;23928;47.562;7.508;2023-01-26T01:32:19;1.40;99.90
38118;DHT22;23928;47.562;7.508;2023-01-26T01:34:48;1.50;99.90
38118;DHT22;23928;47.562;7.508;2023-01-26T01:37:15;1.30;99.90
38118;DHT22;23928;47.562;7.508;2023-01-26T01:39:41;1.30;99.90
38118;DHT22;23928;47.562;7.508;2023-01-26T01:42:06;1.30;99.90
38118;DHT22;23928;47.562;7.508;2023-01-26T01:44:36;1.30;99.90
38118;DHT22;23928;47.562;7.508;2023-01-26T01:47:12;1.30;99.90
38118;DHT22;23928;47.562;7.508;2023-01-26T01:49:46;1.30;99.90
38118;DHT22;23928;47.562;7.508;2023-01-26T01:52:16;1.40;99.90
38118;DHT22;23928;47.562;7.508;2023-01-26T01:54:53;1.50;99.90
38118;DHT22;23928;47.562;7.508;2023-01-26T01:57:28;1.60;99.90
38118;DHT22;23928;47.562;7.508;2023-01-26T02:00:07;1.80;99.90
38118;DHT22;23928;47.562;7.508;2023-01-26T02:02:33;1.80;99.90
38118;DHT22;23928;47.562;7.508;2023-01-26T02:05:08;1.50;99.90
38118;DHT22;23928;47.562;7.508;2023-01-26T02:07:37;1.50;99.90
38118;DHT22;23928;47.562;7.508;2023-01-26T02:10:04;1.50;99.90
38118;DHT22;23928;47.562;7.508;2023-01-26T02:12:46;1.60;99.90
38118;DHT22;23928;47.562;7.508;2023-01-26T02:15:14;1.60;99.90
38118;DHT22;23928;47.562;7.508;2023-01-26T02:17:39;1.50;99.90
38118;DHT22;23928;47.562;7.508;2023-01-26T02:20:26;1.60;99.90
38118;DHT22;23928;47.562;7.508;2023-01-26T02:28:07;1.60;99.90
38118;DHT22;23928;47.562;7.508;2023-01-26T02:30:33;1.70;99.90
38118;DHT22;23928;47.562;7.508;2023-01-26T02:32:58;1.80;99.90
38118;DHT22;23928;47.562;7.508;2023-01-26T02:35:24;1.70;99.90
38118;DHT22;23928;47.562;7.508;2023-01-26T02:37:49;1.70;99.90
38118;DHT22;23928;47.562;7.508;2023-01-26T02:42:45;1.90;99.90
38118;DHT22;23928;47.562;7.508;2023-01-26T02:45:15;1.80;99.90
38118;DHT22;23928;47.562;7.508;2023-01-26T02:47:41;1.80;99.90
38118;DHT22;23928;47.562;7.508;2023-01-26T02:50:08;1.80;99.90
38118;DHT22;23928;47.562;7.508;2023-01-26T02:52:34;1.70;99.90
38118;DHT22;23928;47.562;7.508;2023-01-26T02:54:59;1.40;99.90
38118;DHT22;23928;47.562;7.508;2023-01-26T02:57:45;1.60;99.90
38118;DHT22;23928;47.562;7.508;2023-01-26T03:00:14;1.70;99.90
38118;DHT22;23928;47.562;7.508;2023-01-26T03:02:41;1.60;99.90
38118;DHT22;23928;47.562;7.508;2023-01-26T03:05:07;1.80;99.90
38118;DHT22;23928;47.562;7.508;2023-01-26T03:07:33;1.80;99.90
38118;DHT22;23928;47.562;7.508;2023-01-26T03:09:59;1.80;99.90
38118;DHT22;23928;47.562;7.508;2023-01-26T03:12:25;1.60;99.90
38118;DHT22;23928;47.562;7.508;2023-01-26T03:14:51;1.60;99.90
38118;DHT22;23928;47.562;7.508;2023-01-26T03:17:36;1.80;99.90
38118;DHT22;23928;47.562;7.508;2023-01-26T03:20:01;1.80;99.90
38118;DHT22;23928;47.562;7.508;2023-01-26T03:22:45;1.60;99.90
38118;DHT22;23928;47.562;7.508;2023-01-26T03:25:29;1.60;99.90
38118;DHT22;23928;47.562;7.508;2023-01-26T03:28:13;1.50;99.90
38118;DHT22;23928;47.562;7.508;2023-01-26T03:30:39;1.50;99.90
38118;DHT22;23928;47.562;7.508;2023-01-26T03:33:05;1.40;99.90
38118;DHT22;23928;47.562;7.508;2023-01-26T03:35:31;1.50;99.90
38118;DHT22;23928;47.562;7.508;2023-01-26T03:37:57;1.60;99.90
38118;DHT22;23928;47.562;7.508;2023-01-26T03:40:22;1.50;99.90
38118;DHT22;23928;47.562;7.508;2023-01-26T03:43:07;1.50;99.90
38118;DHT22;23928;47.562;7.508;2023-01-26T03:45:52;1.60;99.90
38118;DHT22;23928;47.562;7.508;2023-01-26T03:48:36;1.70;99.90
38118;DHT22;23928;47.562;7.508;2023-01-26T03:51:20;1.70;99.90
38118;DHT22;23928;47.562;7.508;2023-01-26T03:54:04;1.90;99.90
38118;DHT22;23928;47.562;7.508;2023-01-26T03:56:48;1.80;99.90
38118;DHT22;23928;47.562;7.508;2023-01-26T03:59:14;1.60;99.90
38118;DHT22;23928;47.562;7.508;2023-01-26T04:01:45;1.50;99.90
38118;DHT22;23928;47.562;7.508;2023-01-26T04:04:30;1.60;99.90
38118;DHT22;23928;47.562;7.508;2023-01-26T04:07:14;1.50;99.90
38118;DHT22;23928;47.562;7.508;2023-01-26T04:09:58;1.60;99.90
38118;DHT22;23928;47.562;7.508;2023-01-26T04:12:24;1.50;99.90
38118;DHT22;23928;47.562;7.508;2023-01-26T04:14:49;1.50;99.90
38118;DHT22;23928;47.562;7.508;2023-01-26T04:17:33;1.30;99.90
38118;DHT22;23928;47.562;7.508;2023-01-26T04:20:17;1.40;99.90
38118;DHT22;23928;47.562;7.508;2023-01-26T04:23:01;1.40;99.90
38118;DHT22;23928;47.562;7.508;2023-01-26T04:25:27;1.30;99.90
38118;DHT22;23928;47.562;7.508;2023-01-26T04:27:52;1.30;99.90
38118;DHT22;23928;47.562;7.508;2023-01-26T04:30:18;1.30;99.90
38118;DHT22;23928;47.562;7.508;2023-01-26T04:32:44;1.40;99.90
38118;DHT22;23928;47.562;7.508;2023-01-26T04:35:11;1.40;99.90
38118;DHT22;23928;47.562;7.508;2023-01-26T04:37:37;1.40;99.90
38118;DHT22;23928;47.562;7.508;2023-01-26T04:40:04;1.60;99.90
38118;DHT22;23928;47.562;7.508;2023-01-26T04:42:29;1.60;99.90
38118;DHT22;23928;47.562;7.508;2023-01-26T04:44:55;1.40;99.90
38118;DHT22;23928;47.562;7.508;2023-01-26T04:47:21;1.40;99.90
38118;DHT22;23928;47.562;7.508;2023-01-26T04:49:47;1.50;99.90
38118;DHT22;23928;47.562;7.508;2023-01-26T04:52:13;1.40;99.90
38118;DHT22;23928;47.562;7.508;2023-01-26T04:54:39;1.50;99.90
38118;DHT22;23928;47.562;7.508;2023-01-26T04:57:06;1.50;99.90
38118;DHT22;23928;47.562;7.508;2023-01-26T04:59:31;1.40;99.90
38118;DHT22;23928;47.562;7.508;2023-01-26T05:01:57;1.40;99.90
38118;DHT22;23928;47.562;7.508;2023-01-26T05:04:22;1.20;99.90
38118;DHT22;23928;47.562;7.508;2023-01-26T05:06:48;1.20;99.90
38118;DHT22;23928;47.562;7.508;2023-01-26T05:09:14;1.20;99.90
38118;DHT22;23928;47.562;7.508;2023-01-26T05:11:39;1.20;99.90
38118;DHT22;23928;47.562;7.508;2023-01-26T05:14:05;1.30;99.90
38118;DHT22;23928;47.562;7.508;2023-01-26T05:16:30;1.30;99.90
38118;DHT22;23928;47.562;7.508;2023-01-26T05:18:56;1.30;99.90
38118;DHT22;23928;47.562;7.508;2023-01-26T05:21:22;1.50;99.90
38118;DHT22;23928;47.562;7.508;2023-01-26T05:23:49;1.30;99.90
38118;DHT22;23928;47.562;7.508;2023-01-26T05:26:15;1.30;99.90
38118;DHT22;23928;47.562;7.508;2023-01-26T05:28:41;1.30;99.90
38118;DHT22;23928;47.562;7.508;2023-01-26T05:31:07;1.20;99.90
38118;DHT22;23928;47.562;7.508;2023-01-26T05:33:32;1.20;99.90
38118;DHT22;23928;47.562;7.508;2023-01-26T05:36:03;1.20;99.90
38118;DHT22;23928;47.562;7.508;2023-01-26T05:38:30;1.30;99.90
38118;DHT22;23928;47.562;7.508;2023-01-26T05:40:55;1.30;99.90
38118;DHT22;23928;47.562;7.508;2023-01-26T05:43:21;1.00;99.90
38118;DHT22;23928;47.562;7.508;2023-01-26T05:45:46;1.10;99.90
38118;DHT22;23928;47.562;7.508;2023-01-26T05:48:12;1.20;99.90
38118;DHT22;23928;47.562;7.508;2023-01-26T05:50:38;1.10;99.90
38118;DHT22;23928;47.562;7.508;2023-01-26T05:53:03;1.00;99.90
38118;DHT22;23928;47.562;7.508;2023-01-26T05:55:29;1.20;99.90
38118;DHT22;23928;47.562;7.508;2023-01-26T05:57:54;1.30;99.90
38118;DHT22;23928;47.562;7.508;2023-01-26T06:00:20;1.20;99.90
38118;DHT22;23928;47.562;7.508;2023-01-26T06:02:46;1.20;99.90
38118;DHT22;23928;47.562;7.508;2023-01-26T06:05:12;1.10;99.90
38118;DHT22;23928;47.562;7.508;2023-01-26T06:07:37;1.20;99.90
38118;DHT22;23928;47.562;7.508;2023-01-26T06:10:03;1.20;99.90
38118;DHT22;23928;47.562;7.508;2023-01-26T06:12:29;1.20;99.90
38118;DHT22;23928;47.562;7.508;2023-01-26T06:15:00;1.30;99.90
38118;DHT22;23928;47.562;7.508;2023-01-26T06:17:25;1.10;99.90
38118;DHT22;23928;47.562;7.508;2023-01-26T06:19:51;1.10;99.90
38118;DHT22;23928;47.562;7.508;2023-01-26T06:22:17;1.10;99.90
38118;DHT22;23928;47.562;7.508;2023-01-26T06:24:42;1.40;99.90
38118;DHT22;23928;47.562;7.508;2023-01-26T06:27:15;1.40;99.90
38118;DHT22;23928;47.562;7.508;2023-01-26T06:29:41;1.40;99.90
38118;DHT22;23928;47.562;7.508;2023-01-26T06:32:09;1.50;99.90
38118;DHT22;23928;47.562;7.508;2023-01-26T06:34:35;1.50;99.90
38118;DHT22;23928;47.562;7.508;2023-01-26T06:37:01;1.40;99.90
38118;DHT22;23928;47.562;7.508;2023-01-26T06:39:26;1.40;99.90
38118;DHT22;23928;47.562;7.508;2023-01-26T06:41:52;1.10;99.90
38118;DHT22;23928;47.562;7.508;2023-01-26T06:44:17;1.30;99.90
38118;DHT22;23928;47.562;7.508;2023-01-26T06:46:43;1.20;99.90
38118;DHT22;23928;47.562;7.508;2023-01-26T06:49:09;1.10;99.90
38118;DHT22;23928;47.562;7.508;2023-01-26T06:51:43;1.30;99.90
38118;DHT22;23928;47.562;7.508;2023-01-26T06:54:11;1.20;99.90
38118;DHT22;23928;47.562;7.508;2023-01-26T06:56:37;1.30;99.90
38118;DHT22;23928;47.562;7.508;2023-01-26T06:59:03;1.20;99.90
38118;DHT22;23928;47.562;7.508;2023-01-26T07:01:32;1.30;99.90
38118;DHT22;23928;47.562;7.508;2023-01-26T07:03:59;1.40;99.90
38118;DHT22;23928;47.562;7.508;2023-01-26T07:06:24;1.40;99.90
38118;DHT22;23928;47.562;7.508;2023-01-26T07:08:50;1.10;99.90
38118;DHT22;23928;47.562;7.508;2023-01-26T07:11:15;1.00;99.90
38118;DHT22;23928;47.562;7.508;2023-01-26T07:13:42;1.00;99.90
38118;DHT22;23928;47.562;7.508;2023-01-26T07:16:12;0.80;99.90
38118;DHT22;23928;47.562;7.508;2023-01-26T07:18:38;0.80;99.90
38118;DHT22;23928;47.562;7.508;2023-01-26T07:21:06;0.80;99.90
38118;DHT22;23928;47.562;7.508;2023-01-26T07:23:32;0.80;99.90
38118;DHT22;23928;47.562;7.508;2023-01-26T07:25:57;0.70;99.90
38118;DHT22;23928;47.562;7.508;2023-01-26T07:28:24;0.90;99.90
38118;DHT22;23928;47.562;7.508;2023-01-26T07:30:50;0.80;99.90
38118;DHT22;23928;47.562;7.508;2023-01-26T07:33:16;0.80;99.90
38118;DHT22;23928;47.562;7.508;2023-01-26T07:35:42;0.80;99.90
38118;DHT22;23928;47.562;7.508;2023-01-26T07:38:07;0.80;99.90
38118;DHT22;23928;47.562;7.508;2023-01-26T07:40:33;0.60;99.90
38118;DHT22;23928;47.562;7.508;2023-01-26T07:42:59;0.60;99.90
38118;DHT22;23928;47.562;7.508;2023-01-26T07:45:25;0.50;99.90
38118;DHT22;23928;47.562;7.508;2023-01-26T07:47:53;0.70;99.90
38118;DHT22;23928;47.562;7.508;2023-01-26T07:50:19;0.60;99.90
38118;DHT22;23928;47.562;7.508;2023-01-26T07:52:46;0.60;99.90
38118;DHT22;23928;47.562;7.508;2023-01-26T07:55:12;0.70;99.90
38118;DHT22;23928;47.562;7.508;2023-01-26T07:57:38;0.70;99.90
38118;DHT22;23928;47.562;7.508;2023-01-26T08:00:04;0.80;99.90
38118;DHT22;23928;47.562;7.508;2023-01-26T08:02:30;0.80;99.90
38118;DHT22;23928;47.562;7.508;2023-01-26T08:04:55;0.80;99.90
38118;DHT22;23928;47.562;7.508;2023-01-26T08:07:21;0.90;99.90
38118;DHT22;23928;47.562;7.508;2023-01-26T08:09:46;0.80;99.90
38118;DHT22;23928;47.562;7.508;2023-01-26T08:12:12;0.80;99.90
38118;DHT22;23928;47.562;7.508;2023-01-26T08:14:37;0.90;99.90
38118;DHT22;23928;47.562;7.508;2023-01-26T08:17:03;0.60;99.90
38118;DHT22;23928;47.562;7.508;2023-01-26T08:19:29;0.50;99.90
38118;DHT22;23928;47.562;7.508;2023-01-26T08:21:54;0.70;99.90
38118;DHT22;23928;47.562;7.508;2023-01-26T08:24:21;0.70;99.90
38118;DHT22;23928;47.562;7.508;2023-01-26T08:26:47;0.70;99.90
38118;DHT22;23928;47.562;7.508;2023-01-26T08:29:13;0.60;99.90
38118;DHT22;23928;47.562;7.508;2023-01-26T08:31:38;0.60;99.90
38118;DHT22;23928;47.562;7.508;2023-01-26T08:34:04;0.80;99.90
38118;DHT22;23928;47.562;7.508;2023-01-26T08:36:29;0.50;99.90
38118;DHT22;23928;47.562;7.508;2023-01-26T08:38:55;0.40;99.90
38118;DHT22;23928;47.562;7.508;2023-01-26T08:41:21;0.60;99.90
38118;DHT22;23928;47.562;7.508;2023-01-26T08:43:46;0.60;99.90
38118;DHT22;23928;47.562;7.508;2023-01-26T08:46:12;0.60;99.90
38118;DHT22;23928;47.562;7.508;2023-01-26T08:48:38;0.60;99.90
38118;DHT22;23928;47.562;7.508;2023-01-26T08:51:05;0.40;99.90
38118;DHT22;23928;47.562;7.508;2023-01-26T08:53:32;0.50;99.90
38118;DHT22;23928;47.562;7.508;2023-01-26T08:56:03;0.60;99.90
38118;DHT22;23928;47.562;7.508;2023-01-26T08:58:29;0.70;99.90
38118;DHT22;23928;47.562;7.508;2023-01-26T09:00:55;0.80;99.90
38118;DHT22;23928;47.562;7.508;2023-01-26T09:03:21;0.60;99.90
38118;DHT22;23928;47.562;7.508;2023-01-26T09:05:47;0.70;99.90
38118;DHT22;23928;47.562;7.508;2023-01-26T09:08:12;0.50;99.90
38118;DHT22;23928;47.562;7.508;2023-01-26T09:10:38;0.60;99.90
38118;DHT22;23928;47.562;7.508;2023-01-26T09:13:04;0.60;99.90
38118;DHT22;23928;47.562;7.508;2023-01-26T09:15:30;0.70;99.90
38118;DHT22;23928;47.562;7.508;2023-01-26T09:17:55;0.50;99.90
38118;DHT22;23928;47.562;7.508;2023-01-26T09:20:21;0.40;99.90
38118;DHT22;23928;47.562;7.508;2023-01-26T09:22:47;0.60;99.90
38118;DHT22;23928;47.562;7.508;2023-01-26T09:25:13;0.40;99.90
38118;DHT22;23928;47.562;7.508;2023-01-26T09:27:39;0.40;99.90
38118;DHT22;23928;47.562;7.508;2023-01-26T09:30:06;0.60;99.90
38118;DHT22;23928;47.562;7.508;2023-01-26T09:32:32;0.70;99.90
38118;DHT22;23928;47.562;7.508;2023-01-26T09:34:58;0.80;99.90
38118;DHT22;23928;47.562;7.508;2023-01-26T09:37:23;0.90;99.90
38118;DHT22;23928;47.562;7.508;2023-01-26T09:39:49;0.50;99.90
38118;DHT22;23928;47.562;7.508;2023-01-26T09:42:44;0.50;99.90
38118;DHT22;23928;47.562;7.508;2023-01-26T09:45:25;0.60;99.90
38118;DHT22;23928;47.562;7.508;2023-01-26T09:47:54;0.80;99.90
38118;DHT22;23928;47.562;7.508;2023-01-26T09:50:29;0.70;99.90
38118;DHT22;23928;47.562;7.508;2023-01-26T09:53:04;0.50;99.90
38118;DHT22;23928;47.562;7.508;2023-01-26T09:55:32;0.80;99.90
38118;DHT22;23928;47.562;7.508;2023-01-26T09:58:18;0.60;99.90
38118;DHT22;23928;47.562;7.508;2023-01-26T10:00:51;0.50;99.90
38118;DHT22;23928;47.562;7.508;2023-01-26T10:06:12;0.60;99.90
38118;DHT22;23928;47.562;7.508;2023-01-26T10:08:42;0.50;99.90
38118;DHT22;23928;47.562;7.508;2023-01-26T10:11:20;0.50;99.90
38118;DHT22;23928;47.562;7.508;2023-01-26T10:14:02;0.60;99.90
38118;DHT22;23928;47.562;7.508;2023-01-26T10:16:32;0.70;99.90
38118;DHT22;23928;47.562;7.508;2023-01-26T10:19:02;0.60;99.90
38118;DHT22;23928;47.562;7.508;2023-01-26T10:21:32;0.70;99.90
38118;DHT22;23928;47.562;7.508;2023-01-26T10:24:00;0.70;99.90
38118;DHT22;23928;47.562;7.508;2023-01-26T10:26:30;0.50;99.90
38118;DHT22;23928;47.562;7.508;2023-01-26T10:28:57;0.60;99.90
38118;DHT22;23928;47.562;7.508;2023-01-26T10:31:31;0.50;99.90
38118;DHT22;23928;47.562;7.508;2023-01-26T10:34:16;0.60;99.90
38118;DHT22;23928;47.562;7.508;2023-01-26T10:36:46;0.50;99.90
38118;DHT22;23928;47.562;7.508;2023-01-26T10:39:16;0.50;99.90
38118;DHT22;23928;47.562;7.508;2023-01-26T10:41:59;0.70;99.90
38118;DHT22;23928;47.562;7.508;2023-01-26T10:44:35;0.70;99.90
38118;DHT22;23928;47.562;7.508;2023-01-26T10:47:16;0.50;99.90
38118;DHT22;23928;47.562;7.508;2023-01-26T10:49:43;0.50;99.90
38118;DHT22;23928;47.562;7.508;2023-01-26T10:52:23;0.40;99.90
38118;DHT22;23928;47.562;7.508;2023-01-26T10:55:11;0.40;99.90
38118;DHT22;23928;47.562;7.508;2023-01-26T10:57:44;0.50;99.90
38118;DHT22;23928;47.562;7.508;2023-01-26T11:00:22;0.40;99.90
38118;DHT22;23928;47.562;7.508;2023-01-26T11:02:50;0.50;99.90
38118;DHT22;23928;47.562;7.508;2023-01-26T11:05:25;0.40;99.90
38118;DHT22;23928;47.562;7.508;2023-01-26T11:07:53;0.60;99.90
38118;DHT22;23928;47.562;7.508;2023-01-26T11:10:38;0.60;99.90
38118;DHT22;23928;47.562;7.508;2023-01-26T11:13:18;0.60;99.90
38118;DHT22;23928;47.562;7.508;2023-01-26T11:16:18;0.70;99.90
38118;DHT22;23928;47.562;7.508;2023-01-26T11:18:55;0.50;99.90
38118;DHT22;23928;47.562;7.508;2023-01-26T11:21:40;0.60;99.90
38118;DHT22;23928;47.562;7.508;2023-01-26T11:24:22;0.50;99.90
38118;DHT22;23928;47.562;7.508;2023-01-26T11:27:11;0.40;99.90
38118;DHT22;23928;47.562;7.508;2023-01-26T11:29:53;0.50;99.90
38118;DHT22;23928;47.562;7.508;2023-01-26T11:37:48;0.60;99.90
38118;DHT22;23928;47.562;7.508;2023-01-26T11:59:53;0.50;99.90
38118;DHT22;23928;47.562;7.508;2023-01-26T12:02:40;0.50;99.90
38118;DHT22;23928;47.562;7.508;2023-01-26T12:05:16;0.60;99.90
38118;DHT22;23928;47.562;7.508;2023-01-26T12:08:04;0.50;99.90
38118;DHT22;23928;47.562;7.508;2023-01-26T12:13:39;0.80;99.90
38118;DHT22;23928;47.562;7.508;2023-01-26T12:16:17;0.60;99.90
38118;DHT22;23928;47.562;7.508;2023-01-26T12:19:12;0.60;99.90
38118;DHT22;23928;47.562;7.508;2023-01-26T12:21:43;0.70;99.90
38118;DHT22;23928;47.562;7.508;2023-01-26T12:24:17;0.40;99.90
38118;DHT22;23928;47.562;7.508;2023-01-26T12:26:48;0.60;99.90
38118;DHT22;23928;47.562;7.508;2023-01-26T12:29:29;0.70;99.90
38118;DHT22;23928;47.562;7.508;2023-01-26T12:32:07;0.60;99.90
38118;DHT22;23928;47.562;7.508;2023-01-26T12:34:34;0.70;99.90
38118;DHT22;23928;47.562;7.508;2023-01-26T12:39:43;0.50;99.90
38118;DHT22;23928;47.562;7.508;2023-01-26T12:44:59;0.50;99.90
38118;DHT22;23928;47.562;7.508;2023-01-26T12:47:43;0.60;99.90
38118;DHT22;23928;47.562;7.508;2023-01-26T12:50:25;0.60;99.90
38118;DHT22;23928;47.562;7.508;2023-01-26T12:53:05;0.80;99.90
38118;DHT22;23928;47.562;7.508;2023-01-26T13:03:27;0.70;99.90
38118;DHT22;23928;47.562;7.508;2023-01-26T13:11:02;0.80;99.90
38118;DHT22;23928;47.562;7.508;2023-01-26T13:13:53;0.80;99.90
38118;DHT22;23928;47.562;7.508;2023-01-26T13:18:55;0.70;99.90
38118;DHT22;23928;47.562;7.508;2023-01-26T13:26:48;0.80;99.90
38118;DHT22;23928;47.562;7.508;2023-01-26T13:29:29;0.70;99.90
38118;DHT22;23928;47.562;7.508;2023-01-26T13:34:41;0.70;99.90
38118;DHT22;23928;47.562;7.508;2023-01-26T13:37:44;0.70;99.90
38118;DHT22;23928;47.562;7.508;2023-01-26T13:40:29;0.80;99.90
38118;DHT22;23928;47.562;7.508;2023-01-26T13:43:22;0.80;99.90
38118;DHT22;23928;47.562;7.508;2023-01-26T13:49:02;0.60;99.90
38118;DHT22;23928;47.562;7.508;2023-01-26T13:51:30;0.40;99.90
38118;DHT22;23928;47.562;7.508;2023-01-26T13:54:05;0.60;99.90
38118;DHT22;23928;47.562;7.508;2023-01-26T13:56:40;0.70;99.90
38118;DHT22;23928;47.562;7.508;2023-01-26T14:12:41;0.70;99.90
38118;DHT22;23928;47.562;7.508;2023-01-26T14:15:26;0.50;99.90
38118;DHT22;23928;47.562;7.508;2023-01-26T14:18:03;0.60;99.90
38118;DHT22;23928;47.562;7.508;2023-01-26T14:20:36;0.70;99.90
38118;DHT22;23928;47.562;7.508;2023-01-26T14:25:28;0.40;99.90
38118;DHT22;23928;47.562;7.508;2023-01-26T14:27:53;0.60;99.90
38118;DHT22;23928;47.562;7.508;2023-01-26T14:30:29;0.60;99.90
38118;DHT22;23928;47.562;7.508;2023-01-26T14:33:02;0.60;99.90
38118;DHT22;23928;47.562;7.508;2023-01-26T14:35:28;0.40;99.90
38118;DHT22;23928;47.562;7.508;2023-01-26T14:38:14;0.50;99.90
38118;DHT22;23928;47.562;7.508;2023-01-26T14:40:59;0.50;99.90
38118;DHT22;23928;47.562;7.508;2023-01-26T14:43:25;0.50;99.90
38118;DHT22;23928;47.562;7.508;2023-01-26T14:45:59;0.60;99.90
38118;DHT22;23928;47.562;7.508;2023-01-26T14:48:40;0.60;99.90
38118;DHT22;23928;47.562;7.508;2023-01-26T14:51:15;0.50;99.90
38118;DHT22;23928;47.562;7.508;2023-01-26T14:53:48;0.50;99.90
38118;DHT22;23928;47.562;7.508;2023-01-26T14:56:17;0.50;99.90
38118;DHT22;23928;47.562;7.508;2023-01-26T14:58:44;0.60;99.90
38118;DHT22;23928;47.562;7.508;2023-01-26T15:01:20;0.60;99.90
38118;DHT22;23928;47.562;7.508;2023-01-26T15:03:47;0.50;99.90
38118;DHT22;23928;47.562;7.508;2023-01-26T15:06:19;0.50;99.90
38118;DHT22;23928;47.562;7.508;2023-01-26T15:09:26;0.50;99.90
38118;DHT22;23928;47.562;7.508;2023-01-26T15:11:57;0.60;99.90
38118;DHT22;23928;47.562;7.508;2023-01-26T15:17:45;0.70;99.90
38118;DHT22;23928;47.562;7.508;2023-01-26T15:22:41;0.30;99.90
38118;DHT22;23928;47.562;7.508;2023-01-26T15:25:18;0.30;99.90
38118;DHT22;23928;47.562;7.508;2023-01-26T15:27:58;0.40;99.90
38118;DHT22;23928;47.562;7.508;2023-01-26T15:30:29;0.50;99.90
38118;DHT22;23928;47.562;7.508;2023-01-26T15:32:55;0.50;99.90
38118;DHT22;23928;47.562;7.508;2023-01-26T15:40:26;0.50;99.90
38118;DHT22;23928;47.562;7.508;2023-01-26T15:43:14;0.50;99.90
38118;DHT22;23928;47.562;7.508;2023-01-26T15:45:52;0.30;99.90
38118;DHT22;23928;47.562;7.508;2023-01-26T15:48:18;0.40;99.90
38118;DHT22;23928;47.562;7.508;2023-01-26T15:50:43;0.30;99.90
38118;DHT22;23928;47.562;7.508;2023-01-26T15:53:14;0.30;99.90
38118;DHT22;23928;47.562;7.508;2023-01-26T15:55:41;0.40;99.90
38118;DHT22;23928;47.562;7.508;2023-01-26T15:58:08;0.30;99.90
38118;DHT22;23928;47.562;7.508;2023-01-26T16:00:33;0.30;99.90
38118;DHT22;23928;47.562;7.508;2023-01-26T16:03:02;0.30;99.90
38118;DHT22;23928;47.562;7.508;2023-01-26T16:05:30;0.50;99.90
38118;DHT22;23928;47.562;7.508;2023-01-26T16:07:55;0.50;99.90
38118;DHT22;23928;47.562;7.508;2023-01-26T16:10:21;0.50;99.90
38118;DHT22;23928;47.562;7.508;2023-01-26T16:12:47;0.50;99.90
38118;DHT22;23928;47.562;7.508;2023-01-26T16:15:28;0.20;99.90
38118;DHT22;23928;47.562;7.508;2023-01-26T16:17:55;0.10;99.90
38118;DHT22;23928;47.562;7.508;2023-01-26T16:20:21;0.10;99.90
38118;DHT22;23928;47.562;7.508;2023-01-26T16:22:46;0.20;99.90
38118;DHT22;23928;47.562;7.508;2023-01-26T16:25:23;0.20;99.90
38118;DHT22;23928;47.562;7.508;2023-01-26T16:27:50;0.30;99.90
38118;DHT22;23928;47.562;7.508;2023-01-26T16:30:16;0.20;99.90
38118;DHT22;23928;47.562;7.508;2023-01-26T16:32:42;0.30;99.90
38118;DHT22;23928;47.562;7.508;2023-01-26T16:35:17;0.20;99.90
38118;DHT22;23928;47.562;7.508;2023-01-26T16:37:43;0.30;99.90
38118;DHT22;23928;47.562;7.508;2023-01-26T16:40:10;0.30;99.90
38118;DHT22;23928;47.562;7.508;2023-01-26T16:42:40;0.30;99.90
38118;DHT22;23928;47.562;7.508;2023-01-26T16:45:13;0.20;99.90
38118;DHT22;23928;47.562;7.508;2023-01-26T16:47:39;0.20;99.90
38118;DHT22;23928;47.562;7.508;2023-01-26T16:50:05;0.20;99.90
38118;DHT22;23928;47.562;7.508;2023-01-26T16:52:33;0.20;99.90
38118;DHT22;23928;47.562;7.508;2023-01-26T16:54:58;0.30;99.90
38118;DHT22;23928;47.562;7.508;2023-01-26T16:57:24;0.30;99.90
38118;DHT22;23928;47.562;7.508;2023-01-26T16:59:50;0.20;99.90
38118;DHT22;23928;47.562;7.508;2023-01-26T17:02:28;0.10;99.90
38118;DHT22;23928;47.562;7.508;2023-01-26T17:04:56;0.10;99.90
38118;DHT22;23928;47.562;7.508;2023-01-26T17:07:21;0.10;99.90
38118;DHT22;23928;47.562;7.508;2023-01-26T17:09:47;0.00;99.90
38118;DHT22;23928;47.562;7.508;2023-01-26T17:12:13;0.10;99.90
38118;DHT22;23928;47.562;7.508;2023-01-26T17:14:38;0.00;99.90
38118;DHT22;23928;47.562;7.508;2023-01-26T17:17:04;-0.10;99.90
38118;DHT22;23928;47.562;7.508;2023-01-26T17:19:30;0.00;99.90
38118;DHT22;23928;47.562;7.508;2023-01-26T17:21:55;0.00;99.90
38118;DHT22;23928;47.562;7.508;2023-01-26T17:24:22;0.10;99.90
38118;DHT22;23928;47.562;7.508;2023-01-26T17:26:48;0.10;99.90
38118;DHT22;23928;47.562;7.508;2023-01-26T17:29:13;0.10;99.90
38118;DHT22;23928;47.562;7.508;2023-01-26T17:31:39;0.10;99.90
38118;DHT22;23928;47.562;7.508;2023-01-26T17:34:04;0.10;99.90
38118;DHT22;23928;47.562;7.508;2023-01-26T17:36:30;0.10;99.90
38118;DHT22;23928;47.562;7.508;2023-01-26T17:38:56;0.10;99.90
38118;DHT22;23928;47.562;7.508;2023-01-26T17:41:21;0.00;99.90